Time;durP1;ratioP1;P1;durP2;ratioP2;P2;SDS_P1;SDS_P2;PMS_P1;PMS_P2;Temp;Humidity;BMP_temperature;BMP_pressure;BME280_temperature;BME280_humidity;BME280_pressure;Samples;Min_cycle;Max_cycle;Signal;HPM_P1;HPM_P2
2023/07/02 00:00:11;;;;;;;;;9.33;9.33;;;;;;;;119480;1192;25165;-70
2023/07/02 00:03:01;;;;;;;;;7.00;6.67;;;;;;;;119845;1183;24938;-69
2023/07/02 00:05:30;;;;;;;;;10.00;8.50;;;;;;;;119882;1184;24950;-69
2023/07/02 00:07:58;;;;;;;;;6.50;6.00;;;;;;;;119869;1192;24760;-69
2023/07/02 00:10:27;;;;;;;;;7.00;7.00;;;;;;;;119480;1190;25486;-70
2023/07/02 00:12:55;;;;;;;;;12.00;11.00;;;;;;;;119892;1192;25402;-70
2023/07/02 00:15:23;;;;;;;;;11.00;10.50;;;;;;;;119871;1184;24786;-70
2023/07/02 00:17:52;;;;;;;;;9.00;7.50;;;;;;;;119877;1184;25804;-69
2023/07/02 00:20:21;;;;;;;;;11.33;9.33;;;;;;;;119874;1184;24816;-70
2023/07/02 00:22:49;;;;;;;;;9.00;9.00;;;;;;;;119474;1192;25605;-70
2023/07/02 00:25:17;;;;;;;;;9.50;9.00;;;;;;;;119852;1192;25677;-71
2023/07/02 00:27:46;;;;;;;;;11.33;9.33;;;;;;;;119864;1192;25027;-70
2023/07/02 00:30:14;;;;;;;;;8.00;7.33;;;;;;;;119852;1192;24890;-69
2023/07/02 00:32:43;;;;;;;;;8.67;8.33;;;;;;;;119887;1183;25184;-70
2023/07/02 00:35:11;;;;;;;;;8.00;8.00;;;;;;;;119880;1192;25402;-70
2023/07/02 00:37:39;;;;;;;;;9.00;9.00;;;;;;;;119873;1192;24882;-70
2023/07/02 00:40:08;;;;;;;;;12.50;9.00;;;;;;;;119894;1192;25146;-71
2023/07/02 00:42:36;;;;;;;;;7.00;7.00;;;;;;;;119844;1192;25079;-70
2023/07/02 00:45:06;;;;;;;;;11.75;11.00;;;;;;;;119483;1192;25691;-70
2023/07/02 00:47:35;;;;;;;;;10.33;8.33;;;;;;;;119886;1192;25033;-71
2023/07/02 00:50:04;;;;;;;;;8.00;8.00;;;;;;;;119883;1192;25101;-70
2023/07/02 00:52:33;;;;;;;;;8.00;8.00;;;;;;;;119867;1184;24968;-71
2023/07/02 00:55:02;;;;;;;;;6.00;6.00;;;;;;;;119508;1192;24702;-71
2023/07/02 00:57:30;;;;;;;;;8.67;8.33;;;;;;;;119494;1192;24974;-71
2023/07/02 01:00:02;;;;;;;;;9.33;8.00;;;;;;;;119479;1185;25472;-71
2023/07/02 01:02:31;;;;;;;;;7.33;7.33;;;;;;;;119518;1192;25134;-71
2023/07/02 01:05:00;;;;;;;;;10.75;9.00;;;;;;;;119871;1184;24767;-71
2023/07/02 01:07:29;;;;;;;;;8.00;8.00;;;;;;;;119737;1192;24827;-72
2023/07/02 01:09:58;;;;;;;;;8.50;8.50;;;;;;;;119482;1184;25137;-71
2023/07/02 01:12:27;;;;;;;;;9.00;8.00;;;;;;;;119495;1192;25593;-72
2023/07/02 01:14:59;;;;;;;;;9.00;9.00;;;;;;;;119489;1192;25370;-71
2023/07/02 01:17:37;;;;;;;;;9.00;6.50;;;;;;;;119482;1193;25615;-72
2023/07/02 01:20:08;;;;;;;;;6.67;6.67;;;;;;;;119715;1193;24824;-72
2023/07/02 01:22:37;;;;;;;;;5.67;5.33;;;;;;;;119448;1193;24971;-71
2023/07/02 01:25:06;;;;;;;;;8.00;7.00;;;;;;;;119463;1193;25542;-72
2023/07/02 01:27:35;;;;;;;;;9.00;8.00;;;;;;;;119460;1185;25228;-72
2023/07/02 01:30:04;;;;;;;;;8.00;8.00;;;;;;;;119453;1187;25672;-70
2023/07/02 01:32:33;;;;;;;;;9.33;9.00;;;;;;;;119811;1184;24770;-72
2023/07/02 01:35:01;;;;;;;;;8.00;8.00;;;;;;;;119843;1192;24710;-72
2023/07/02 01:37:36;;;;;;;;;9.00;6.67;;;;;;;;119863;1192;24939;-73
2023/07/02 01:40:06;;;;;;;;;9.00;7.00;;;;;;;;119865;1192;24841;-72
2023/07/02 01:42:34;;;;;;;;;5.67;5.67;;;;;;;;119469;1192;25254;-72
2023/07/02 01:45:03;;;;;;;;;8.33;8.33;;;;;;;;119881;1183;25693;-72
2023/07/02 01:47:31;;;;;;;;;8.00;7.00;;;;;;;;119467;1192;24995;-70
2023/07/02 01:50:00;;;;;;;;;10.00;8.00;;;;;;;;119486;1185;25654;-71
2023/07/02 01:52:32;;;;;;;;;8.50;6.00;;;;;;;;119798;1188;25335;-70
2023/07/02 01:55:02;;;;;;;;;9.00;8.00;;;;;;;;119910;1183;26141;-70
2023/07/02 01:57:30;;;;;;;;;8.33;7.00;;;;;;;;119857;1192;25557;-70
2023/07/02 01:59:58;;;;;;;;;8.00;7.33;;;;;;;;119872;1192;25510;-70
2023/07/02 02:02:27;;;;;;;;;9.00;7.67;;;;;;;;119871;1189;25571;-72
2023/07/02 02:04:56;;;;;;;;;7.50;7.50;;;;;;;;119818;1192;24924;-70
2023/07/02 02:07:25;;;;;;;;;7.00;5.33;;;;;;;;119641;1189;25641;-70
2023/07/02 02:09:54;;;;;;;;;8.50;6.50;;;;;;;;119852;1183;25096;-72
2023/07/02 02:12:22;;;;;;;;;6.00;6.00;;;;;;;;119866;1192;24983;-70
2023/07/02 02:14:51;;;;;;;;;7.50;6.00;;;;;;;;119881;1192;25021;-72
2023/07/02 02:17:19;;;;;;;;;10.00;7.50;;;;;;;;119489;1185;25688;-72
2023/07/02 02:19:47;;;;;;;;;6.00;5.00;;;;;;;;119665;1189;24813;-71
2023/07/02 02:22:16;;;;;;;;;7.25;5.25;;;;;;;;119695;1193;25628;-72
2023/07/02 02:24:45;;;;;;;;;7.50;7.50;;;;;;;;119441;1193;25109;-71
2023/07/02 02:27:13;;;;;;;;;8.00;7.50;;;;;;;;119700;1193;25660;-73
2023/07/02 02:29:41;;;;;;;;;5.00;5.00;;;;;;;;119700;1193;25706;-72
2023/07/02 02:32:10;;;;;;;;;7.33;7.33;;;;;;;;119472;1193;24909;-73
2023/07/02 02:34:38;;;;;;;;;8.67;6.00;;;;;;;;119681;1193;24916;-73
2023/07/02 02:37:07;;;;;;;;;4.33;4.33;;;;;;;;119696;1192;24788;-71
2023/07/02 02:39:35;;;;;;;;;6.00;6.00;;;;;;;;119446;1186;24863;-71
2023/07/02 02:42:04;;;;;;;;;6.50;6.50;;;;;;;;119681;1193;24990;-71
2023/07/02 02:44:32;;;;;;;;;5.00;5.00;;;;;;;;119693;1186;25273;-71
2023/07/02 02:47:00;;;;;;;;;7.50;7.50;;;;;;;;119689;1193;24967;-71
2023/07/02 02:49:29;;;;;;;;;8.75;7.25;;;;;;;;119444;1193;24980;-70
2023/07/02 02:51:57;;;;;;;;;11.33;7.00;;;;;;;;119691;1185;25190;-70
2023/07/02 02:54:25;;;;;;;;;3.00;3.00;;;;;;;;119690;1193;25501;-71
2023/07/02 02:56:54;;;;;;;;;7.50;6.75;;;;;;;;119854;1192;24883;-71
2023/07/02 02:59:22;;;;;;;;;7.00;7.00;;;;;;;;119889;1183;25092;-71
2023/07/02 03:01:51;;;;;;;;;7.00;6.00;;;;;;;;119884;1192;24937;-71
2023/07/02 03:04:24;;;;;;;;;5.00;5.00;;;;;;;;119877;1192;25950;-72
2023/07/02 03:06:53;;;;;;;;;6.33;6.33;;;;;;;;119861;1183;24702;-72
2023/07/02 03:09:22;;;;;;;;;7.67;7.33;;;;;;;;119876;1192;25475;-73
2023/07/02 03:11:50;;;;;;;;;6.00;6.00;;;;;;;;119869;1184;24793;-73
2023/07/02 03:14:18;;;;;;;;;6.50;6.50;;;;;;;;119475;1186;25237;-73
2023/07/02 03:16:47;;;;;;;;;8.00;8.00;;;;;;;;119843;1192;24708;-71
2023/07/02 03:19:15;;;;;;;;;5.33;5.00;;;;;;;;119861;1192;25071;-72
2023/07/02 03:21:44;;;;;;;;;6.33;6.33;;;;;;;;119875;1192;25522;-72
2023/07/02 03:24:13;;;;;;;;;6.00;6.00;;;;;;;;119876;1183;24827;-72
2023/07/02 03:26:42;;;;;;;;;7.50;7.50;;;;;;;;119873;1192;25147;-72
2023/07/02 03:29:11;;;;;;;;;7.00;6.50;;;;;;;;119534;1193;25061;-73
2023/07/02 03:31:39;;;;;;;;;8.33;6.00;;;;;;;;119692;1193;25759;-73
2023/07/02 03:34:09;;;;;;;;;9.00;6.00;;;;;;;;119687;1193;26033;-73
2023/07/02 03:36:38;;;;;;;;;4.67;4.00;;;;;;;;119677;1193;25302;-73
2023/07/02 03:39:06;;;;;;;;;6.50;6.00;;;;;;;;119425;1193;25519;-72
2023/07/02 03:41:37;;;;;;;;;7.00;6.00;;;;;;;;119688;1193;24984;-71
2023/07/02 03:44:06;;;;;;;;;6.00;6.00;;;;;;;;119697;1193;25031;-72
2023/07/02 03:46:35;;;;;;;;;6.33;5.67;;;;;;;;119842;1190;25251;-72
2023/07/02 03:49:03;;;;;;;;;5.75;5.50;;;;;;;;119484;1186;24811;-72
2023/07/02 03:51:32;;;;;;;;;6.00;6.00;;;;;;;;119885;1192;24925;-72
2023/07/02 03:54:01;;;;;;;;;7.75;7.25;;;;;;;;119508;1192;24724;-72
2023/07/02 03:56:29;;;;;;;;;6.00;6.00;;;;;;;;119510;1192;24973;-70
2023/07/02 03:58:57;;;;;;;;;6.67;6.33;;;;;;;;119856;1192;24953;-72
2023/07/02 04:01:26;;;;;;;;;4.50;4.50;;;;;;;;119868;1192;25660;-72
2023/07/02 04:03:56;;;;;;;;;6.00;6.00;;;;;;;;119501;1185;25081;-72
2023/07/02 04:06:25;;;;;;;;;6.67;5.33;;;;;;;;119500;1192;25400;-71
2023/07/02 04:08:53;;;;;;;;;5.00;4.75;;;;;;;;119894;1184;25564;-71
2023/07/02 04:11:21;;;;;;;;;6.00;3.50;;;;;;;;119875;1183;25282;-72
2023/07/02 04:13:50;;;;;;;;;7.00;7.00;;;;;;;;119889;1192;25026;-73
2023/07/02 04:16:18;;;;;;;;;6.33;6.33;;;;;;;;119851;1192;24773;-73
2023/07/02 04:18:46;;;;;;;;;6.33;6.00;;;;;;;;119873;1184;25024;-73
2023/07/02 04:21:14;;;;;;;;;7.50;7.50;;;;;;;;119889;1192;25591;-73
2023/07/02 04:23:43;;;;;;;;;4.25;4.25;;;;;;;;119853;1192;25467;-72
2023/07/02 04:26:12;;;;;;;;;5.67;5.67;;;;;;;;119886;1191;25502;-72
2023/07/02 04:29:00;;;;;;;;;7.50;4.00;;;;;;;;119866;1184;24868;-73
2023/07/02 04:31:28;;;;;;;;;5.00;5.00;;;;;;;;119875;1184;25274;-71
2023/07/02 04:33:57;;;;;;;;;8.00;7.50;;;;;;;;119872;1192;25490;-68
2023/07/02 04:36:25;;;;;;;;;6.00;6.00;;;;;;;;119478;1191;25038;-71
2023/07/02 04:38:54;;;;;;;;;7.00;7.00;;;;;;;;119871;1180;25052;-71
2023/07/02 04:41:22;;;;;;;;;7.00;7.00;;;;;;;;119458;1185;24947;-72
2023/07/02 04:43:50;;;;;;;;;8.50;6.50;;;;;;;;119464;1182;24996;-71
2023/07/02 04:46:19;;;;;;;;;8.00;6.00;;;;;;;;119824;1188;25450;-71
2023/07/02 04:48:47;;;;;;;;;5.00;5.00;;;;;;;;119907;1179;25634;-70
2023/07/02 04:51:16;;;;;;;;;7.50;5.75;;;;;;;;119899;1183;25356;-71
2023/07/02 04:53:45;;;;;;;;;8.67;5.67;;;;;;;;119809;1184;25494;-70
2023/07/02 04:56:13;;;;;;;;;6.33;6.33;;;;;;;;119786;1188;25381;-69
2023/07/02 04:58:41;;;;;;;;;6.00;5.00;;;;;;;;119754;1192;25182;-70
2023/07/02 05:01:10;;;;;;;;;7.00;7.00;;;;;;;;119782;1192;25143;-68
2023/07/02 05:03:38;;;;;;;;;6.50;6.50;;;;;;;;119465;1192;24996;-69
2023/07/02 05:06:07;;;;;;;;;7.33;7.00;;;;;;;;119793;1189;25391;-68
2023/07/02 05:08:36;;;;;;;;;8.33;8.33;;;;;;;;119441;1190;24941;-69
2023/07/02 05:11:04;;;;;;;;;7.00;7.00;;;;;;;;119796;1188;25645;-69
2023/07/02 05:13:33;;;;;;;;;8.50;8.00;;;;;;;;119504;1190;24829;-69
2023/07/02 05:16:01;;;;;;;;;8.25;8.25;;;;;;;;119579;1192;24974;-69
2023/07/02 05:18:29;;;;;;;;;5.25;5.25;;;;;;;;119794;1185;25095;-70
2023/07/02 05:20:57;;;;;;;;;8.00;5.00;;;;;;;;119786;1192;25233;-69
2023/07/02 05:23:26;;;;;;;;;8.67;7.67;;;;;;;;119503;1192;25423;-69
2023/07/02 05:25:54;;;;;;;;;7.00;7.00;;;;;;;;119888;1184;25117;-71
2023/07/02 05:28:23;;;;;;;;;10.00;8.00;;;;;;;;119843;1188;25090;-73
2023/07/02 05:30:51;;;;;;;;;8.00;8.00;;;;;;;;119424;1193;25533;-70
2023/07/02 05:33:22;;;;;;;;;10.50;6.75;;;;;;;;119498;1192;25146;-67
2023/07/02 05:35:50;;;;;;;;;10.50;9.00;;;;;;;;119751;1192;25350;-70
2023/07/02 05:38:19;;;;;;;;;6.50;6.50;;;;;;;;119743;1192;25031;-70
2023/07/02 05:40:47;;;;;;;;;7.00;7.00;;;;;;;;119702;1192;24920;-70
2023/07/02 05:43:16;;;;;;;;;11.67;8.00;;;;;;;;119887;1183;24952;-70
2023/07/02 05:45:45;;;;;;;;;7.00;7.00;;;;;;;;119882;1192;25084;-70
2023/07/02 05:48:13;;;;;;;;;6.50;6.50;;;;;;;;119858;1189;25186;-67
2023/07/02 05:50:41;;;;;;;;;9.00;8.33;;;;;;;;119529;1185;25351;-67
2023/07/02 05:53:10;;;;;;;;;10.00;9.25;;;;;;;;119882;1192;25492;-65
2023/07/02 05:55:39;;;;;;;;;8.00;8.00;;;;;;;;119867;1192;25708;-66
2023/07/02 05:58:07;;;;;;;;;6.50;6.50;;;;;;;;119881;1183;25225;-65
2023/07/02 06:00:35;;;;;;;;;10.50;8.00;;;;;;;;119867;1183;25573;-65
2023/07/02 06:03:04;;;;;;;;;9.00;8.00;;;;;;;;119880;1192;25609;-65
2023/07/02 06:05:33;;;;;;;;;7.25;7.25;;;;;;;;119868;1183;25084;-65
2023/07/02 06:08:01;;;;;;;;;10.00;8.50;;;;;;;;119501;1184;24923;-65
2023/07/02 06:10:30;;;;;;;;;12.00;9.67;;;;;;;;119876;1192;24911;-65
2023/07/02 06:12:58;;;;;;;;;9.00;8.00;;;;;;;;119884;1192;24785;-64
2023/07/02 06:15:26;;;;;;;;;6.00;6.00;;;;;;;;119868;1184;25656;-65
2023/07/02 06:17:54;;;;;;;;;11.00;9.75;;;;;;;;119866;1192;25412;-64
2023/07/02 06:20:23;;;;;;;;;11.50;8.50;;;;;;;;119864;1192;25466;-64
2023/07/02 06:22:51;;;;;;;;;8.50;8.50;;;;;;;;119857;1192;24984;-65
2023/07/02 06:25:20;;;;;;;;;7.67;7.67;;;;;;;;119843;1192;25255;-64
2023/07/02 06:27:48;;;;;;;;;7.50;7.50;;;;;;;;119842;1192;25409;-64
2023/07/02 06:30:16;;;;;;;;;7.00;5.67;;;;;;;;119873;1192;25732;-64
2023/07/02 06:32:45;;;;;;;;;12.00;9.00;;;;;;;;119863;1192;25031;-63
2023/07/02 06:35:13;;;;;;;;;9.00;8.67;;;;;;;;119861;1192;25934;-63
2023/07/02 06:37:41;;;;;;;;;9.00;9.00;;;;;;;;119893;1183;25085;-64
2023/07/02 06:40:10;;;;;;;;;7.67;7.00;;;;;;;;119866;1192;24863;-64
2023/07/02 06:42:40;;;;;;;;;9.33;9.33;;;;;;;;119860;1184;25569;-64
2023/07/02 06:45:08;;;;;;;;;9.67;9.00;;;;;;;;119487;1192;25113;-65
2023/07/02 06:47:37;;;;;;;;;10.50;9.00;;;;;;;;119461;1185;25465;-64
2023/07/02 06:50:05;;;;;;;;;8.00;8.00;;;;;;;;119510;1192;25269;-65
2023/07/02 06:52:34;;;;;;;;;11.00;9.67;;;;;;;;119499;1192;25112;-64
2023/07/02 06:55:03;;;;;;;;;8.00;7.00;;;;;;;;119854;1192;25431;-64
2023/07/02 06:57:32;;;;;;;;;8.67;8.00;;;;;;;;119509;1192;25830;-65
2023/07/02 07:00:00;;;;;;;;;8.75;8.50;;;;;;;;119869;1192;25502;-64
2023/07/02 07:02:29;;;;;;;;;8.00;8.00;;;;;;;;119695;1192;24846;-64
2023/07/02 07:04:57;;;;;;;;;12.50;11.50;;;;;;;;119873;1188;25706;-66
2023/07/02 07:07:26;;;;;;;;;10.50;9.00;;;;;;;;119887;1183;24760;-63
2023/07/02 07:09:54;;;;;;;;;9.50;9.50;;;;;;;;119888;1192;24996;-65
2023/07/02 07:12:22;;;;;;;;;14.50;13.00;;;;;;;;119854;1192;25007;-64
2023/07/02 07:14:50;;;;;;;;;11.75;11.00;;;;;;;;119882;1192;24979;-64
2023/07/02 07:17:19;;;;;;;;;11.00;11.00;;;;;;;;119836;1192;25891;-64
2023/07/02 07:19:48;;;;;;;;;14.00;10.00;;;;;;;;119516;1185;25309;-64
2023/07/02 07:22:16;;;;;;;;;15.50;13.50;;;;;;;;119606;1182;25524;-65
2023/07/02 07:24:44;;;;;;;;;12.50;12.50;;;;;;;;119513;1192;24999;-64
2023/07/02 07:27:12;;;;;;;;;11.00;10.00;;;;;;;;119484;1185;24919;-64
2023/07/02 07:29:41;;;;;;;;;15.33;13.00;;;;;;;;119888;1192;24863;-64
2023/07/02 07:32:09;;;;;;;;;14.00;10.67;;;;;;;;119698;1192;25005;-63
2023/07/02 07:34:38;;;;;;;;;15.67;12.00;;;;;;;;119827;1192;25001;-65
2023/07/02 07:37:06;;;;;;;;;14.00;13.33;;;;;;;;119851;1192;25177;-66
2023/07/02 07:39:36;;;;;;;;;15.67;12.67;;;;;;;;119873;1192;25023;-63
2023/07/02 07:42:05;;;;;;;;;14.00;11.50;;;;;;;;119713;1192;24716;-63
2023/07/02 07:44:33;;;;;;;;;13.33;11.00;;;;;;;;119713;1192;24785;-66
2023/07/02 07:47:02;;;;;;;;;15.33;15.33;;;;;;;;119719;1179;24822;-66
2023/07/02 07:49:30;;;;;;;;;11.67;9.67;;;;;;;;119872;1192;25513;-64
2023/07/02 07:51:58;;;;;;;;;11.00;11.00;;;;;;;;119753;1192;24734;-64
2023/07/02 07:54:27;;;;;;;;;15.00;14.00;;;;;;;;119700;1192;25668;-65
2023/07/02 07:56:55;;;;;;;;;11.50;11.50;;;;;;;;119701;1193;25251;-67
2023/07/02 07:59:23;;;;;;;;;11.00;11.00;;;;;;;;119795;1183;25372;-67
2023/07/02 08:01:52;;;;;;;;;10.00;10.00;;;;;;;;119872;1183;24964;-65
2023/07/02 08:04:20;;;;;;;;;14.50;13.50;;;;;;;;119885;1192;25260;-66
2023/07/02 08:06:48;;;;;;;;;14.00;11.67;;;;;;;;119877;1192;25661;-64
2023/07/02 08:09:17;;;;;;;;;11.00;11.00;;;;;;;;119475;1189;25359;-68
2023/07/02 08:11:46;;;;;;;;;14.00;13.00;;;;;;;;119835;1192;24728;-65
2023/07/02 08:14:14;;;;;;;;;17.00;12.50;;;;;;;;119851;1180;25311;-71
2023/07/02 08:16:44;;;;;;;;;13.00;11.00;;;;;;;;119480;1188;25279;-72
2023/07/02 08:19:12;;;;;;;;;13.25;12.00;;;;;;;;119750;1192;25479;-71
2023/07/02 08:21:41;;;;;;;;;12.50;10.50;;;;;;;;119625;1189;25350;-71
2023/07/02 08:24:09;;;;;;;;;13.00;11.00;;;;;;;;119821;1189;25040;-75
2023/07/02 08:26:37;;;;;;;;;14.67;13.67;;;;;;;;119877;1192;25700;-75
2023/07/02 08:29:06;;;;;;;;;15.50;14.00;;;;;;;;119810;1189;25160;-74
2023/07/02 08:31:34;;;;;;;;;15.00;11.33;;;;;;;;119847;1192;24825;-72
2023/07/02 08:34:03;;;;;;;;;15.00;13.67;;;;;;;;119858;1192;25115;-77
2023/07/02 08:36:31;;;;;;;;;15.00;11.00;;;;;;;;119753;1192;25382;-79
2023/07/02 08:39:00;;;;;;;;;15.00;15.00;;;;;;;;119811;1189;24803;-76
2023/07/02 08:41:29;;;;;;;;;15.00;15.00;;;;;;;;119763;1192;24972;-80
2023/07/02 08:43:59;;;;;;;;;18.00;14.33;;;;;;;;119890;1192;24750;-81
2023/07/02 08:46:28;;;;;;;;;12.50;11.00;;;;;;;;119662;1189;25322;-85
2023/07/02 08:48:56;;;;;;;;;15.00;15.00;;;;;;;;119835;1179;25477;-82
2023/07/02 08:51:24;;;;;;;;;15.00;14.50;;;;;;;;119800;1192;25235;-81
2023/07/02 08:53:53;;;;;;;;;14.25;12.75;;;;;;;;119470;1188;24735;-76
2023/07/02 08:56:21;;;;;;;;;14.50;14.00;;;;;;;;119805;1188;25267;-70
2023/07/02 08:58:49;;;;;;;;;16.00;14.00;;;;;;;;119508;1192;24938;-71
2023/07/02 09:01:18;;;;;;;;;19.50;15.00;;;;;;;;119865;1192;25027;-71
2023/07/02 09:03:46;;;;;;;;;13.33;12.00;;;;;;;;119474;1192;25499;-70
2023/07/02 09:06:17;;;;;;;;;11.67;10.33;;;;;;;;119771;1192;24952;-68
2023/07/02 09:08:46;;;;;;;;;14.50;14.00;;;;;;;;119708;1185;25053;-66
2023/07/02 09:11:16;;;;;;;;;13.00;13.00;;;;;;;;119477;1186;25218;-69
2023/07/02 09:13:45;;;;;;;;;17.00;14.00;;;;;;;;119868;1184;25811;-70
2023/07/02 09:16:24;;;;;;;;;13.50;12.00;;;;;;;;119826;1184;25012;-70
2023/07/02 09:18:59;;;;;;;;;16.50;13.50;;;;;;;;119769;1189;24911;-68
2023/07/02 09:21:47;;;;;;;;;18.00;14.50;;;;;;;;119875;1192;24948;-69
2023/07/02 09:24:17;;;;;;;;;12.00;11.00;;;;;;;;119437;1193;25415;-68
2023/07/02 09:26:51;;;;;;;;;13.33;11.33;;;;;;;;119460;1193;25542;-66
2023/07/02 09:29:24;;;;;;;;;15.50;13.50;;;;;;;;119744;1192;25110;-66
2023/07/02 09:31:52;;;;;;;;;14.33;13.33;;;;;;;;119612;1189;25179;-70
2023/07/02 09:34:40;;;;;;;;;16.00;13.50;;;;;;;;119544;1179;25488;-68
2023/07/02 09:37:09;;;;;;;;;15.00;13.67;;;;;;;;119672;1185;25118;-72
2023/07/02 09:39:39;;;;;;;;;12.75;11.50;;;;;;;;119480;1189;24861;-74
2023/07/02 09:42:09;;;;;;;;;13.00;12.50;;;;;;;;119482;1192;25126;-74
2023/07/02 09:44:38;;;;;;;;;9.00;7.75;;;;;;;;119423;1192;25112;-72
2023/07/02 09:47:08;;;;;;;;;13.00;11.00;;;;;;;;119470;1192;25374;-73
2023/07/02 09:49:52;;;;;;;;;12.00;12.00;;;;;;;;119462;1192;25547;-67
2023/07/02 09:52:21;;;;;;;;;11.50;10.00;;;;;;;;119481;1190;25512;-66
2023/07/02 09:54:49;;;;;;;;;11.00;11.00;;;;;;;;119461;1192;25172;-71
2023/07/02 09:57:17;;;;;;;;;10.50;10.50;;;;;;;;119521;1192;24859;-70
2023/07/02 09:59:46;;;;;;;;;12.67;11.00;;;;;;;;119709;1192;25639;-68
2023/07/02 10:02:14;;;;;;;;;17.50;12.50;;;;;;;;119792;1189;25602;-72
2023/07/02 10:04:47;;;;;;;;;12.67;12.00;;;;;;;;119475;1185;25478;-66
2023/07/02 10:07:26;;;;;;;;;11.00;10.00;;;;;;;;119466;1192;25671;-66
2023/07/02 10:09:55;;;;;;;;;9.00;9.00;;;;;;;;119478;1193;25493;-68
2023/07/02 10:12:27;;;;;;;;;13.50;12.50;;;;;;;;119449;1193;25050;-64
2023/07/02 10:14:57;;;;;;;;;11.00;11.00;;;;;;;;119583;1184;24948;-66
2023/07/02 10:17:33;;;;;;;;;16.33;13.00;;;;;;;;119675;1189;25683;-68
2023/07/02 10:20:11;;;;;;;;;13.67;9.67;;;;;;;;119801;1189;25079;-70
2023/07/02 10:22:47;;;;;;;;;12.75;11.75;;;;;;;;119538;1189;25345;-70
2023/07/02 10:25:34;;;;;;;;;13.00;9.25;;;;;;;;119487;1190;24830;-70
2023/07/02 10:28:17;;;;;;;;;10.50;10.50;;;;;;;;119456;1192;25020;-72
2023/07/02 10:30:45;;;;;;;;;12.00;9.67;;;;;;;;119620;1189;25360;-71
2023/07/02 10:33:16;;;;;;;;;14.00;13.00;;;;;;;;119860;1192;25575;-67
2023/07/02 10:35:47;;;;;;;;;11.00;11.00;;;;;;;;119553;1190;25075;-66
2023/07/02 10:38:18;;;;;;;;;10.00;9.50;;;;;;;;119537;1189;24994;-73
2023/07/02 10:40:47;;;;;;;;;10.25;8.50;;;;;;;;119459;1192;24832;-68
2023/07/02 10:43:24;;;;;;;;;14.50;12.00;;;;;;;;119614;1188;25738;-68
2023/07/02 10:45:57;;;;;;;;;12.33;10.67;;;;;;;;119518;1192;24795;-68
2023/07/02 10:48:25;;;;;;;;;9.00;9.00;;;;;;;;119497;1192;25590;-73
2023/07/02 10:50:54;;;;;;;;;8.00;7.00;;;;;;;;119518;1189;24952;-71
2023/07/02 10:53:22;;;;;;;;;12.33;11.33;;;;;;;;119743;1189;24899;-74
2023/07/02 10:55:55;;;;;;;;;14.00;12.00;;;;;;;;119870;1184;25210;-70
2023/07/02 10:58:25;;;;;;;;;8.25;8.25;;;;;;;;119689;1189;25511;-70
2023/07/02 11:00:53;;;;;;;;;10.25;9.75;;;;;;;;119874;1188;25715;-71
2023/07/02 11:03:26;;;;;;;;;10.75;9.25;;;;;;;;119455;1192;25381;-72
2023/07/02 11:05:55;;;;;;;;;10.00;10.00;;;;;;;;119489;1188;25633;-74
2023/07/02 11:08:34;;;;;;;;;12.00;9.33;;;;;;;;119482;1192;25025;-76
2023/07/02 11:11:09;;;;;;;;;7.00;7.00;;;;;;;;119471;1188;25137;-75
2023/07/02 11:13:49;;;;;;;;;9.67;9.67;;;;;;;;119885;1188;25594;-75
2023/07/02 11:16:29;;;;;;;;;9.50;9.50;;;;;;;;119754;1188;25221;-76
2023/07/02 11:19:10;;;;;;;;;14.67;13.33;;;;;;;;119761;1188;24857;-69
2023/07/02 11:21:39;;;;;;;;;15.00;11.00;;;;;;;;119772;1189;25146;-76
2023/07/02 11:24:08;;;;;;;;;11.00;9.50;;;;;;;;119435;1186;25159;-73
2023/07/02 11:26:40;;;;;;;;;10.00;8.67;;;;;;;;119572;1189;26385;-74
2023/07/02 11:29:12;;;;;;;;;15.00;11.50;;;;;;;;119783;1189;25445;-75
2023/07/02 11:31:40;;;;;;;;;17.67;10.67;;;;;;;;119455;1192;24838;-75
2023/07/02 11:34:16;;;;;;;;;10.50;10.50;;;;;;;;119794;1180;25280;-74
2023/07/02 11:36:47;;;;;;;;;15.33;14.33;;;;;;;;119488;1192;25239;-76
2023/07/02 11:39:15;;;;;;;;;12.00;12.00;;;;;;;;119469;1187;25423;-75
2023/07/02 11:41:45;;;;;;;;;9.50;9.50;;;;;;;;119839;1192;25107;-75
2023/07/02 11:44:13;;;;;;;;;11.00;9.33;;;;;;;;119450;1193;25471;-75
2023/07/02 11:46:42;;;;;;;;;9.00;9.00;;;;;;;;119443;1193;24920;-75
2023/07/02 11:49:10;;;;;;;;;11.33;10.33;;;;;;;;119693;1192;25579;-77
2023/07/02 11:51:40;;;;;;;;;10.00;9.00;;;;;;;;119679;1193;25862;-67
2023/07/02 11:54:08;;;;;;;;;10.67;10.67;;;;;;;;119454;1193;25480;-69
2023/07/02 11:56:38;;;;;;;;;8.50;7.50;;;;;;;;119740;1189;25383;-67
2023/07/02 11:59:06;;;;;;;;;8.67;8.00;;;;;;;;119590;1185;24723;-66
2023/07/02 12:01:34;;;;;;;;;13.00;11.00;;;;;;;;119782;1192;25031;-65
2023/07/02 12:04:03;;;;;;;;;9.50;9.50;;;;;;;;119802;1184;25530;-66
2023/07/02 12:06:31;;;;;;;;;11.00;10.67;;;;;;;;119836;1189;25284;-69
2023/07/02 12:09:00;;;;;;;;;12.67;8.67;;;;;;;;119456;1192;25259;-66
2023/07/02 12:11:28;;;;;;;;;12.50;11.00;;;;;;;;119826;1189;25495;-66
2023/07/02 12:13:57;;;;;;;;;10.00;8.00;;;;;;;;119481;1192;25487;-66
2023/07/02 12:16:25;;;;;;;;;11.00;11.00;;;;;;;;119787;1185;25167;-69
2023/07/02 12:18:53;;;;;;;;;12.67;10.67;;;;;;;;119920;1188;24737;-72
2023/07/02 12:21:22;;;;;;;;;14.00;12.00;;;;;;;;119500;1188;24698;-69
2023/07/02 12:23:50;;;;;;;;;8.50;8.50;;;;;;;;119878;1188;25640;-71
2023/07/02 12:26:18;;;;;;;;;13.00;10.33;;;;;;;;119876;1184;24783;-69
2023/07/02 12:28:47;;;;;;;;;10.00;9.67;;;;;;;;119889;1188;24793;-69
2023/07/02 12:31:15;;;;;;;;;11.50;10.00;;;;;;;;119780;1189;25068;-70
2023/07/02 12:33:43;;;;;;;;;10.67;9.67;;;;;;;;119846;1183;25573;-68
2023/07/02 12:36:13;;;;;;;;;9.50;9.50;;;;;;;;119874;1192;24983;-69
2023/07/02 12:38:42;;;;;;;;;7.33;7.33;;;;;;;;119839;1192;25158;-68
2023/07/02 12:41:10;;;;;;;;;11.50;10.00;;;;;;;;119850;1190;25008;-70
2023/07/02 12:43:39;;;;;;;;;10.00;10.00;;;;;;;;119820;1188;24807;-66
2023/07/02 12:46:07;;;;;;;;;12.00;9.00;;;;;;;;119539;1189;25588;-69
2023/07/02 12:48:35;;;;;;;;;12.25;8.50;;;;;;;;119866;1188;25662;-73
2023/07/02 12:51:04;;;;;;;;;7.00;7.00;;;;;;;;119920;1188;24683;-72
2023/07/02 12:53:32;;;;;;;;;10.50;10.50;;;;;;;;119882;1188;25005;-67
2023/07/02 12:56:00;;;;;;;;;9.50;9.50;;;;;;;;119856;1184;25203;-66
2023/07/02 12:58:29;;;;;;;;;9.50;9.50;;;;;;;;119486;1192;25635;-65
2023/07/02 13:00:57;;;;;;;;;11.00;11.00;;;;;;;;119888;1180;24754;-75
2023/07/02 13:03:25;;;;;;;;;13.00;10.00;;;;;;;;119880;1188;24831;-77
2023/07/02 13:05:54;;;;;;;;;14.00;11.33;;;;;;;;119894;1192;24757;-76
2023/07/02 13:08:22;;;;;;;;;11.00;10.33;;;;;;;;119879;1183;25031;-69
2023/07/02 13:10:50;;;;;;;;;10.50;8.50;;;;;;;;119732;1192;24778;-77
2023/07/02 13:13:19;;;;;;;;;11.25;7.75;;;;;;;;119841;1188;24736;-62
2023/07/02 13:15:51;;;;;;;;;12.00;10.00;;;;;;;;119789;1183;24743;-68
2023/07/02 13:18:20;;;;;;;;;11.00;11.00;;;;;;;;119754;1183;25808;-68
2023/07/02 13:20:48;;;;;;;;;11.50;9.50;;;;;;;;119505;1186;25254;-68
2023/07/02 13:23:19;;;;;;;;;16.00;13.00;;;;;;;;119871;1189;25242;-68
2023/07/02 13:25:47;;;;;;;;;13.33;9.00;;;;;;;;119596;1188;25495;-68
2023/07/02 13:28:16;;;;;;;;;12.00;8.00;;;;;;;;119484;1192;25163;-72
2023/07/02 13:30:44;;;;;;;;;10.00;9.00;;;;;;;;119868;1183;25193;-68
2023/07/02 13:33:13;;;;;;;;;9.00;9.00;;;;;;;;119837;1192;25545;-69
2023/07/02 13:35:43;;;;;;;;;11.00;10.00;;;;;;;;119850;1188;25820;-68
2023/07/02 13:38:12;;;;;;;;;9.00;8.50;;;;;;;;119889;1188;24810;-70
2023/07/02 13:40:40;;;;;;;;;9.00;8.50;;;;;;;;119886;1188;25524;-68
2023/07/02 13:43:08;;;;;;;;;9.50;9.50;;;;;;;;119836;1183;25551;-67
2023/07/02 13:45:36;;;;;;;;;8.50;8.00;;;;;;;;119837;1191;24950;-67
2023/07/02 13:48:05;;;;;;;;;9.67;8.33;;;;;;;;119747;1190;25268;-68
2023/07/02 13:50:33;;;;;;;;;11.67;9.33;;;;;;;;119476;1185;24956;-69
2023/07/02 13:53:02;;;;;;;;;8.00;8.00;;;;;;;;119856;1191;25045;-68
2023/07/02 13:55:30;;;;;;;;;7.67;7.67;;;;;;;;119873;1192;25717;-72
2023/07/02 13:57:59;;;;;;;;;9.50;7.00;;;;;;;;119865;1191;25210;-65
2023/07/02 14:00:28;;;;;;;;;14.00;11.00;;;;;;;;119868;1192;25371;-66
2023/07/02 14:02:57;;;;;;;;;10.50;10.00;;;;;;;;119874;1191;24862;-72
2023/07/02 14:05:26;;;;;;;;;17.67;16.00;;;;;;;;119520;1191;24790;-67
2023/07/02 14:07:54;;;;;;;;;16.00;13.50;;;;;;;;119863;1184;24965;-67
2023/07/02 14:10:23;;;;;;;;;15.67;10.33;;;;;;;;119854;1192;25194;-67
2023/07/02 14:12:51;;;;;;;;;18.00;15.75;;;;;;;;119712;1192;25678;-66
2023/07/02 14:15:20;;;;;;;;;16.00;14.50;;;;;;;;119866;1184;25158;-67
2023/07/02 14:17:49;;;;;;;;;18.33;17.00;;;;;;;;119718;1192;24902;-69
2023/07/02 14:20:17;;;;;;;;;24.00;20.00;;;;;;;;119909;1188;25036;-68
2023/07/02 14:22:45;;;;;;;;;12.67;12.67;;;;;;;;119877;1184;24745;-71
2023/07/02 14:25:16;;;;;;;;;20.50;17.00;;;;;;;;119849;1192;25295;-69
2023/07/02 14:27:59;;;;;;;;;16.67;15.67;;;;;;;;119857;1192;24798;-69
2023/07/02 14:30:27;;;;;;;;;23.00;18.50;;;;;;;;119879;1192;25378;-68